createdAt,value
2022-11-13T00:00:16.719Z,8.47
2022-11-13T00:03:02.914Z,8.50
2022-11-13T00:05:48.564Z,8.53
2022-11-13T00:08:34.228Z,8.54
2022-11-13T00:11:21.525Z,8.56
2022-11-13T00:14:07.156Z,8.55
2022-11-13T00:16:52.892Z,8.53
2022-11-13T00:19:38.893Z,8.50
2022-11-13T00:22:24.624Z,8.48
2022-11-13T00:25:10.547Z,8.42
2022-11-13T00:27:56.140Z,8.37
2022-11-13T00:30:42.081Z,8.33
2022-11-13T00:33:54.859Z,8.28
2022-11-13T00:36:34.086Z,8.20
2022-11-13T00:39:19.885Z,8.16
2022-11-13T00:42:05.992Z,8.13
2022-11-13T00:44:51.565Z,8.09
2022-11-13T00:47:37.204Z,8.04
2022-11-13T00:50:23.031Z,7.99
2022-11-13T00:53:10.716Z,7.94
2022-11-13T00:56:00.507Z,7.88
2022-11-13T00:58:46.469Z,7.82
2022-11-13T01:01:32.452Z,7.80
2022-11-13T01:04:18.301Z,7.76
2022-11-13T01:07:03.979Z,7.74
2022-11-13T01:09:52.814Z,7.72
2022-11-13T01:12:38.520Z,7.70
2022-11-13T01:15:25.447Z,7.69
2022-11-13T01:18:12.918Z,7.67
2022-11-13T01:21:11.481Z,7.65
2022-11-13T01:23:57.530Z,7.70
2022-11-13T01:26:43.303Z,7.74
2022-11-13T01:29:28.930Z,7.72
2022-11-13T01:32:14.872Z,7.70
2022-11-13T01:35:00.885Z,7.69
2022-11-13T01:37:46.521Z,7.71
2022-11-13T01:40:32.007Z,7.70
2022-11-13T01:43:39.033Z,7.66
2022-11-13T01:46:33.212Z,7.64
2022-11-13T01:49:42.217Z,7.60
2022-11-13T01:52:41.145Z,7.59
2022-11-13T01:55:27.209Z,7.56
2022-11-13T01:58:14.756Z,7.56
2022-11-13T02:01:00.470Z,7.56
2022-11-13T02:03:46.056Z,7.53
2022-11-13T02:06:41.880Z,7.54
2022-11-13T02:09:43.648Z,7.53
2022-11-13T02:12:40.915Z,7.53
2022-11-13T02:15:31.959Z,7.54
2022-11-13T02:18:21.445Z,7.56
2022-11-13T02:21:57.628Z,7.58
2022-11-13T02:24:50.939Z,7.59
2022-11-13T02:27:47.034Z,7.60
2022-11-13T02:30:36.950Z,7.60
2022-11-13T02:33:33.992Z,7.60
2022-11-13T02:36:25.349Z,7.63
2022-11-13T02:39:13.988Z,7.64
2022-11-13T02:41:59.586Z,7.65
2022-11-13T02:44:45.520Z,7.66
2022-11-13T02:47:32.074Z,7.69
2022-11-13T02:50:18.901Z,7.69
2022-11-13T02:53:06.354Z,7.70
2022-11-13T02:55:52.233Z,7.74
2022-11-13T02:58:38.136Z,7.82
2022-11-13T03:01:24.290Z,7.86
2022-11-13T03:04:10.267Z,7.88
2022-11-13T03:06:56.172Z,7.90
2022-11-13T03:09:42.387Z,7.93
2022-11-13T03:12:28.139Z,7.94
2022-11-13T03:15:14.694Z,7.94
2022-11-13T03:18:06.336Z,7.94
2022-11-13T03:20:54.046Z,7.99
2022-11-13T03:23:45.217Z,7.97
2022-11-13T03:26:30.790Z,7.92
2022-11-13T03:29:16.627Z,7.90
2022-11-13T03:32:03.307Z,7.85
2022-11-13T03:34:49.174Z,7.82
2022-11-13T03:37:34.780Z,7.81
2022-11-13T03:40:20.296Z,7.80
2022-11-13T03:43:06.092Z,7.81
2022-11-13T03:45:52.116Z,7.83
2022-11-13T03:48:38.000Z,7.92
2022-11-13T03:51:23.848Z,8.00
2022-11-13T03:54:09.548Z,7.99
2022-11-13T03:56:55.372Z,7.97
2022-11-13T03:59:41.381Z,7.90
2022-11-13T04:02:26.907Z,7.86
2022-11-13T04:05:12.442Z,7.89
2022-11-13T04:07:58.409Z,7.92
2022-11-13T04:10:45.743Z,7.87
2022-11-13T04:13:31.317Z,7.87
2022-11-13T04:16:16.851Z,7.85
2022-11-13T04:19:02.708Z,7.88
2022-11-13T04:21:48.643Z,7.86
2022-11-13T04:24:34.266Z,7.86
2022-11-13T04:27:20.184Z,7.82
2022-11-13T04:30:07.275Z,7.79
2022-11-13T04:32:52.997Z,7.76
2022-11-13T04:35:39.084Z,7.74
2022-11-13T04:38:24.562Z,7.70
2022-11-13T04:41:32.445Z,7.66
2022-11-13T04:44:18.108Z,7.63
2022-11-13T04:47:03.962Z,7.58
2022-11-13T04:49:49.400Z,7.56
2022-11-13T04:52:35.468Z,7.52
2022-11-13T04:55:21.354Z,7.47
2022-11-13T04:58:07.155Z,7.44
2022-11-13T05:00:52.851Z,7.41
2022-11-13T05:03:38.710Z,7.39
2022-11-13T05:06:24.212Z,7.38
2022-11-13T05:09:11.645Z,7.36
2022-11-13T05:11:57.344Z,7.35
2022-11-13T05:14:42.994Z,7.32
2022-11-13T05:17:28.585Z,7.29
2022-11-13T05:20:14.416Z,7.25
2022-11-13T05:22:59.903Z,7.25
2022-11-13T05:25:45.694Z,7.22
2022-11-13T05:28:32.196Z,7.19
2022-11-13T05:31:17.908Z,7.14
2022-11-13T05:34:06.322Z,7.11
2022-11-13T05:36:52.337Z,7.04
2022-11-13T05:39:38.180Z,6.99
2022-11-13T05:42:24.114Z,6.92
2022-11-13T05:45:10.472Z,6.87
2022-11-13T05:47:57.379Z,6.84
2022-11-13T05:50:42.961Z,6.77
2022-11-13T05:53:29.702Z,6.73
2022-11-13T05:56:33.447Z,6.65
2022-11-13T05:59:19.232Z,6.59
2022-11-13T06:02:05.096Z,6.54
2022-11-13T06:04:51.784Z,6.50
2022-11-13T06:07:41.052Z,6.45
2022-11-13T06:10:26.598Z,6.40
2022-11-13T06:13:12.352Z,6.36
2022-11-13T06:16:17.335Z,6.30
2022-11-13T06:19:07.365Z,6.26
2022-11-13T06:21:53.167Z,6.22
2022-11-13T06:24:39.000Z,6.19
2022-11-13T06:27:24.903Z,6.15
2022-11-13T06:30:11.880Z,6.08
2022-11-13T06:32:57.548Z,6.04
2022-11-13T06:35:43.393Z,6.00
2022-11-13T06:38:34.988Z,5.96
2022-11-13T06:41:25.743Z,5.90
2022-11-13T06:44:11.446Z,5.86
2022-11-13T06:46:57.315Z,5.83
2022-11-13T06:49:42.888Z,5.79
2022-11-13T06:52:28.464Z,5.74
2022-11-13T06:55:14.343Z,5.71
2022-11-13T06:58:00.041Z,5.67
2022-11-13T07:00:45.802Z,5.62
2022-11-13T07:03:31.319Z,5.55
2022-11-13T07:06:22.609Z,5.51
2022-11-13T07:09:08.862Z,5.45
2022-11-13T07:11:54.603Z,5.39
2022-11-13T07:14:40.306Z,5.33
2022-11-13T07:17:25.843Z,5.29
2022-11-13T07:20:11.742Z,5.25
2022-11-13T07:22:59.950Z,5.19
2022-11-13T07:25:45.604Z,5.15
2022-11-13T07:28:32.024Z,5.10
2022-11-13T07:31:18.557Z,5.08
2022-11-13T07:34:04.477Z,5.07
2022-11-13T07:36:50.425Z,5.06
2022-11-13T07:39:36.099Z,5.06
2022-11-13T07:42:21.958Z,5.07
2022-11-13T07:45:08.384Z,5.08
2022-11-13T07:48:02.852Z,5.09
2022-11-13T07:50:49.657Z,5.11
2022-11-13T07:53:35.982Z,5.17
2022-11-13T07:56:23.413Z,5.23
2022-11-13T07:59:09.378Z,5.27
2022-11-13T08:01:55.292Z,5.32
2022-11-13T08:04:41.364Z,5.37
2022-11-13T08:07:27.019Z,5.41
2022-11-13T08:10:12.597Z,5.46
2022-11-13T08:13:08.919Z,5.51
2022-11-13T08:15:54.801Z,5.55
2022-11-13T08:18:40.368Z,5.61
2022-11-13T08:21:26.396Z,5.66
2022-11-13T08:24:12.056Z,5.71
2022-11-13T08:26:58.012Z,5.77
2022-11-13T08:29:43.572Z,5.83
2022-11-13T08:32:29.306Z,5.89
2022-11-13T08:35:19.124Z,5.93
2022-11-13T08:38:09.009Z,6.02
2022-11-13T08:41:08.680Z,6.16
2022-11-13T08:43:55.445Z,6.27
2022-11-13T08:46:41.793Z,6.36
2022-11-13T08:49:27.707Z,6.45
2022-11-13T08:52:13.369Z,6.54
2022-11-13T08:54:58.994Z,6.62
2022-11-13T08:57:44.828Z,6.72
2022-11-13T09:00:33.301Z,6.85
2022-11-13T09:03:20.247Z,7.01
2022-11-13T09:06:08.659Z,7.17
2022-11-13T09:08:54.953Z,7.39
2022-11-13T09:11:40.900Z,7.63
2022-11-13T09:14:28.073Z,7.84
2022-11-13T09:17:13.869Z,8.01
2022-11-13T09:20:04.058Z,8.17
2022-11-13T09:23:07.948Z,8.31
2022-11-13T09:25:53.386Z,8.40
2022-11-13T09:28:39.438Z,8.49
2022-11-13T09:31:25.418Z,8.59
2022-11-13T09:34:10.935Z,8.68
2022-11-13T09:36:56.883Z,8.81
2022-11-13T09:39:42.635Z,8.90
2022-11-13T09:42:32.109Z,8.99
2022-11-13T09:45:18.384Z,9.08
2022-11-13T09:48:25.759Z,9.14
2022-11-13T09:51:31.542Z,9.26
2022-11-13T09:54:17.735Z,9.33
2022-11-13T09:57:41.197Z,9.45
2022-11-13T10:00:29.640Z,9.61
2022-11-13T10:04:01.623Z,9.76
2022-11-13T10:07:29.846Z,10.05
2022-11-13T10:10:55.569Z,11.17
2022-11-13T10:13:57.478Z,12.29
2022-11-13T10:17:23.859Z,13.32
2022-11-13T10:20:22.972Z,14.31
2022-11-13T10:23:21.872Z,15.09
2022-11-13T10:26:18.351Z,15.80
2022-11-13T10:29:22.331Z,16.41
2022-11-13T10:32:32.346Z,16.82
2022-11-13T10:35:41.685Z,17.24
2022-11-13T10:38:45.024Z,17.43
2022-11-13T10:41:31.238Z,17.43
2022-11-13T10:44:35.319Z,17.37
2022-11-13T10:50:33.438Z,17.12
2022-11-13T10:53:20.330Z,16.88
2022-11-13T10:56:40.759Z,16.67
2022-11-13T10:59:38.956Z,16.54
2022-11-13T11:02:28.651Z,16.48
2022-11-13T11:05:25.077Z,16.52
2022-11-13T11:08:11.538Z,16.59
2022-11-13T11:11:36.351Z,16.59
2022-11-13T11:14:41.332Z,16.54
2022-11-13T11:17:49.470Z,16.58
2022-11-13T11:20:59.674Z,16.61
2022-11-13T11:24:20.168Z,16.73
2022-11-13T11:27:23.091Z,16.80
2022-11-13T11:30:26.546Z,16.81
2022-11-13T11:33:31.413Z,16.92
2022-11-13T11:36:42.296Z,16.99
2022-11-13T11:39:49.850Z,16.94
2022-11-13T11:43:02.380Z,16.87
2022-11-13T11:45:48.346Z,16.90
2022-11-13T11:48:34.681Z,16.89
2022-11-13T11:51:31.054Z,16.80
2022-11-13T11:54:49.425Z,16.74
2022-11-13T11:58:15.915Z,16.82
2022-11-13T12:01:49.183Z,16.81
2022-11-13T12:05:25.909Z,16.78
2022-11-13T12:08:41.314Z,16.81
2022-11-13T12:11:45.195Z,16.71
2022-11-13T12:15:18.666Z,16.66
2022-11-13T12:18:30.475Z,16.68
2022-11-13T12:21:24.392Z,16.88
2022-11-13T12:24:51.573Z,16.94
2022-11-13T12:28:22.555Z,16.79
2022-11-13T12:31:39.217Z,16.69
2022-11-13T12:34:56.612Z,16.76
2022-11-13T12:38:42.790Z,16.82
2022-11-13T12:42:20.904Z,17.04
2022-11-13T12:45:20.829Z,17.48
2022-11-13T12:48:47.102Z,17.90
2022-11-13T12:51:41.590Z,18.42
2022-11-13T12:54:37.481Z,18.70
2022-11-13T12:57:30.022Z,19.15
2022-11-13T13:00:31.233Z,19.52
2022-11-13T13:03:41.124Z,19.74
2022-11-13T13:07:38.959Z,19.48
2022-11-13T13:10:57.055Z,19.12
2022-11-13T13:14:31.452Z,19.08
2022-11-13T13:17:23.672Z,19.02
2022-11-13T13:20:15.649Z,19.23
2022-11-13T13:23:08.626Z,19.42
2022-11-13T13:26:25.320Z,19.71
2022-11-13T13:29:27.100Z,19.99
2022-11-13T13:33:09.382Z,19.99
2022-11-13T13:36:16.390Z,19.56
2022-11-13T13:39:38.314Z,19.24
2022-11-13T13:42:53.346Z,18.73
2022-11-13T13:46:01.677Z,18.49
2022-11-13T13:48:53.220Z,18.35
2022-11-13T13:51:48.079Z,18.34
2022-11-13T13:54:36.406Z,18.32
2022-11-13T13:57:23.599Z,18.59
2022-11-13T14:00:20.375Z,18.52
2022-11-13T14:03:21.257Z,18.38
2022-11-13T14:06:24.594Z,18.30
2022-11-13T14:09:19.631Z,18.12
2022-11-13T14:12:18.937Z,17.84
2022-11-13T14:15:21.657Z,17.75
2022-11-13T14:18:18.021Z,17.48
2022-11-13T14:21:21.069Z,17.29
2022-11-13T14:24:46.044Z,17.47
2022-11-13T14:27:32.530Z,17.30
2022-11-13T14:30:27.073Z,17.12
2022-11-13T14:33:40.705Z,16.97
2022-11-13T14:36:33.570Z,16.82
2022-11-13T14:39:33.589Z,16.61
2022-11-13T14:42:47.831Z,16.41
2022-11-13T14:45:34.652Z,16.23
2022-11-13T14:48:29.506Z,16.06
2022-11-13T14:51:55.371Z,15.88
2022-11-13T14:55:13.146Z,15.74
2022-11-13T14:57:50.576Z,15.56
2022-11-13T15:00:38.629Z,15.44
2022-11-13T15:03:27.536Z,15.23
2022-11-13T15:06:27.433Z,15.06
2022-11-13T15:09:17.630Z,14.85
2022-11-13T15:12:03.347Z,14.73
2022-11-13T15:14:49.075Z,14.60
2022-11-13T15:17:36.545Z,14.47
2022-11-13T15:20:28.767Z,14.32
2022-11-13T15:23:16.651Z,14.20
2022-11-13T15:26:02.112Z,14.11
2022-11-13T15:28:47.626Z,14.01
2022-11-13T15:31:42.892Z,13.91
2022-11-13T15:34:28.466Z,13.83
2022-11-13T15:37:17.000Z,13.74
2022-11-13T15:40:03.834Z,13.64
2022-11-13T15:42:49.665Z,13.56
2022-11-13T15:45:38.687Z,13.48
2022-11-13T15:48:26.807Z,13.37
2022-11-13T15:51:38.035Z,13.29
2022-11-13T15:54:34.565Z,13.18
2022-11-13T15:57:25.516Z,13.06
2022-11-13T16:00:25.096Z,12.97
2022-11-13T16:03:12.366Z,12.89
2022-11-13T16:06:01.296Z,12.81
2022-11-13T16:08:48.763Z,12.70
2022-11-13T16:11:35.376Z,12.61
2022-11-13T16:14:24.537Z,12.53
2022-11-13T16:17:21.606Z,12.45
2022-11-13T16:20:12.811Z,12.35
2022-11-13T16:22:58.382Z,12.29
2022-11-13T16:25:49.617Z,12.20
2022-11-13T16:28:52.768Z,12.15
2022-11-13T16:31:41.819Z,12.10
2022-11-13T16:34:27.567Z,12.03
2022-11-13T16:37:24.805Z,11.95
2022-11-13T16:40:25.912Z,11.96
2022-11-13T16:43:13.081Z,11.93
2022-11-13T16:46:01.360Z,11.86
2022-11-13T16:48:48.344Z,11.77
2022-11-13T16:51:34.201Z,11.73
2022-11-13T16:54:20.368Z,11.65
2022-11-13T16:57:06.335Z,11.57
2022-11-13T16:59:52.088Z,11.48
2022-11-13T17:02:38.429Z,11.38
2022-11-13T17:05:24.777Z,11.29
2022-11-13T17:08:13.108Z,11.22
2022-11-13T17:10:59.628Z,11.15
2022-11-13T17:13:54.088Z,11.06
2022-11-13T17:16:39.782Z,10.98
2022-11-13T17:19:25.414Z,10.91
2022-11-13T17:22:12.934Z,10.88
2022-11-13T17:24:58.699Z,10.84
2022-11-13T17:27:45.016Z,10.80
2022-11-13T17:30:30.490Z,10.76
2022-11-13T17:33:16.725Z,10.72
2022-11-13T17:36:03.412Z,10.69
2022-11-13T17:38:49.447Z,10.65
2022-11-13T17:41:37.221Z,10.61
2022-11-13T17:44:22.887Z,10.55
2022-11-13T17:47:08.518Z,10.51
2022-11-13T17:49:54.433Z,10.48
2022-11-13T17:52:40.538Z,10.44
2022-11-13T17:55:26.701Z,10.37
2022-11-13T17:58:12.497Z,10.32
2022-11-13T18:01:08.993Z,10.28
2022-11-13T18:03:57.207Z,10.21
2022-11-13T18:06:42.733Z,10.17
2022-11-13T18:09:28.319Z,10.11
2022-11-13T18:12:13.918Z,10.04
2022-11-13T18:14:59.865Z,9.97
2022-11-13T18:17:45.678Z,9.90
2022-11-13T18:20:32.867Z,9.84
2022-11-13T18:23:18.886Z,9.78
2022-11-13T18:26:19.190Z,9.69
2022-11-13T18:29:05.209Z,9.66
2022-11-13T18:31:50.638Z,9.62
2022-11-13T18:34:36.168Z,9.54
2022-11-13T18:37:22.431Z,9.52
2022-11-13T18:40:09.685Z,9.48
2022-11-13T18:42:55.288Z,9.47
2022-11-13T18:45:40.896Z,9.44
2022-11-13T18:48:35.425Z,9.41
2022-11-13T18:51:30.241Z,9.40
2022-11-13T18:54:17.680Z,9.40
2022-11-13T18:57:03.667Z,9.38
2022-11-13T18:59:49.468Z,9.39
2022-11-13T19:02:35.391Z,9.38
2022-11-13T19:05:21.540Z,9.38
2022-11-13T19:08:07.812Z,9.37
2022-11-13T19:10:53.597Z,9.37
2022-11-13T19:13:41.972Z,9.37
2022-11-13T19:16:37.019Z,9.37
2022-11-13T19:19:24.011Z,9.35
2022-11-13T19:22:09.841Z,9.33
2022-11-13T19:24:55.527Z,9.32
2022-11-13T19:27:41.234Z,9.28
2022-11-13T19:30:27.378Z,9.27
2022-11-13T19:33:13.489Z,9.25
2022-11-13T19:35:58.935Z,9.23
2022-11-13T19:38:45.220Z,9.20
2022-11-13T19:41:31.116Z,9.19
2022-11-13T19:44:16.673Z,9.16
2022-11-13T19:47:02.553Z,9.14
2022-11-13T19:49:48.521Z,9.13
2022-11-13T19:52:34.106Z,9.10
2022-11-13T19:55:19.971Z,9.09
2022-11-13T19:58:05.655Z,9.05
2022-11-13T20:00:53.208Z,9.00
2022-11-13T20:03:39.833Z,8.95
2022-11-13T20:06:28.318Z,8.90
2022-11-13T20:09:14.264Z,8.88
2022-11-13T20:11:59.860Z,8.82
2022-11-13T20:14:45.711Z,8.76
2022-11-13T20:17:31.694Z,8.72
2022-11-13T20:20:17.619Z,8.66
2022-11-13T20:23:03.448Z,8.63
2022-11-13T20:26:03.488Z,8.56
2022-11-13T20:28:49.054Z,8.52
2022-11-13T20:31:34.959Z,8.48
2022-11-13T20:34:20.662Z,8.46
2022-11-13T20:37:06.462Z,8.42
2022-11-13T20:39:52.115Z,8.38
2022-11-13T20:42:37.732Z,8.35
2022-11-13T20:45:23.703Z,8.34
2022-11-13T20:48:09.378Z,8.32
2022-11-13T20:50:55.307Z,8.29
2022-11-13T20:53:42.220Z,8.25
2022-11-13T20:56:28.073Z,8.23
2022-11-13T20:59:13.676Z,8.21
2022-11-13T21:01:59.734Z,8.19
2022-11-13T21:04:45.868Z,8.17
2022-11-13T21:07:31.923Z,8.14
2022-11-13T21:10:18.068Z,8.10
2022-11-13T21:13:49.843Z,8.07
2022-11-13T21:16:36.195Z,8.04
2022-11-13T21:19:22.627Z,8.00
2022-11-13T21:22:08.349Z,7.97
2022-11-13T21:24:53.941Z,7.93
2022-11-13T21:27:39.563Z,7.91
2022-11-13T21:30:25.465Z,7.88
2022-11-13T21:33:11.226Z,7.84
2022-11-13T21:36:07.437Z,7.81
2022-11-13T21:38:55.562Z,7.77
2022-11-13T21:41:41.295Z,7.74
2022-11-13T21:44:27.224Z,7.70
2022-11-13T21:47:13.120Z,7.70
2022-11-13T21:49:59.161Z,7.67
2022-11-13T21:52:44.807Z,7.66
2022-11-13T21:55:30.587Z,7.61
2022-11-13T21:58:16.836Z,7.56
2022-11-13T22:01:03.533Z,7.51
2022-11-13T22:03:49.490Z,7.49
2022-11-13T22:06:36.609Z,7.44
2022-11-13T22:09:25.541Z,7.38
2022-11-13T22:12:11.321Z,7.39
2022-11-13T22:14:56.930Z,7.36
2022-11-13T22:17:42.566Z,7.34
2022-11-13T22:20:28.441Z,7.32
2022-11-13T22:23:14.461Z,7.31
2022-11-13T22:26:06.827Z,7.30
2022-11-13T22:28:54.748Z,7.27
2022-11-13T22:31:40.580Z,7.23
2022-11-13T22:34:26.478Z,7.22
2022-11-13T22:37:11.944Z,7.20
2022-11-13T22:39:57.826Z,7.17
2022-11-13T22:42:43.554Z,7.17
2022-11-13T22:45:29.577Z,7.13
2022-11-13T22:48:15.523Z,7.09
2022-11-13T22:51:15.913Z,7.03
2022-11-13T22:54:06.645Z,6.99
2022-11-13T22:56:53.245Z,6.97
2022-11-13T22:59:38.656Z,6.96
2022-11-13T23:02:24.242Z,6.94
2022-11-13T23:05:09.922Z,6.91
2022-11-13T23:07:55.400Z,6.90
2022-11-13T23:10:42.048Z,6.87
2022-11-13T23:13:27.679Z,6.85
2022-11-13T23:16:14.196Z,6.80
2022-11-13T23:19:01.997Z,6.79
2022-11-13T23:21:48.924Z,6.74
2022-11-13T23:24:34.490Z,6.72
2022-11-13T23:27:20.398Z,6.72
2022-11-13T23:30:07.353Z,6.69
2022-11-13T23:32:53.255Z,6.69
2022-11-13T23:35:39.104Z,6.63
2022-11-13T23:38:24.832Z,6.57
2022-11-13T23:41:11.346Z,6.54
2022-11-13T23:44:12.576Z,6.51
2022-11-13T23:46:58.141Z,6.48
2022-11-13T23:49:44.166Z,6.47
2022-11-13T23:52:29.767Z,6.45
2022-11-13T23:55:16.562Z,6.41
2022-11-13T23:58:05.629Z,6.42
